createdAt,value
2023-04-30T00:00:46.557Z,322.61
2023-04-30T00:06:08.874Z,322.29
2023-04-30T00:11:01.219Z,321.36
2023-04-30T00:16:01.203Z,321.67
2023-04-30T00:21:01.186Z,319.50
2023-04-30T00:26:01.098Z,324.18
2023-04-30T00:31:01.076Z,322.29
2023-04-30T00:36:01.035Z,321.98
2023-04-30T00:41:00.869Z,324.50
2023-04-30T00:46:00.834Z,323.24
2023-04-30T00:51:00.738Z,322.92
2023-04-30T00:56:00.728Z,322.29
2023-04-30T01:01:00.599Z,320.43
2023-04-30T01:06:00.561Z,323.24
2023-04-30T01:11:00.447Z,321.67
2023-04-30T01:16:00.540Z,321.36
2023-04-30T01:21:00.318Z,322.29
2023-04-30T01:26:00.266Z,321.05
2023-04-30T01:31:00.252Z,319.50
2023-04-30T01:36:00.160Z,319.81
2023-04-30T01:41:00.059Z,319.81
2023-04-30T01:46:00.100Z,319.19
2023-04-30T01:50:59.951Z,317.36
2023-04-30T01:55:59.888Z,317.36
2023-04-30T02:00:59.858Z,317.06
2023-04-30T02:05:59.772Z,319.19
2023-04-30T02:10:59.638Z,319.19
2023-04-30T02:15:59.645Z,318.89
2023-04-30T02:20:59.517Z,316.15
2023-04-30T02:25:59.455Z,318.58
2023-04-30T02:30:59.402Z,314.36
2023-04-30T02:35:59.338Z,315.55
2023-04-30T02:40:59.263Z,317.36
2023-04-30T02:45:59.264Z,317.67
2023-04-30T02:50:59.135Z,318.27
2023-04-30T02:55:59.098Z,320.43
2023-04-30T03:00:59.019Z,319.50
2023-04-30T03:05:58.927Z,320.12
2023-04-30T03:10:58.911Z,320.43
2023-04-30T03:15:58.835Z,322.29
2023-04-30T03:20:58.738Z,325.77
2023-04-30T03:25:58.695Z,326.42
2023-04-30T03:30:58.610Z,327.06
2023-04-30T03:35:58.528Z,328.68
2023-04-30T03:40:58.477Z,328.35
2023-04-30T03:45:58.501Z,331.97
2023-04-30T03:50:58.321Z,332.30
2023-04-30T03:55:58.273Z,334.31
2023-04-30T04:00:58.226Z,337.03
2023-04-30T04:05:58.147Z,337.37
2023-04-30T04:10:58.077Z,338.40
2023-04-30T04:15:58.052Z,340.48
2023-04-30T04:20:57.970Z,342.95
2023-04-30T04:25:57.893Z,348.35
2023-04-30T04:30:57.847Z,351.30
2023-04-30T04:35:57.760Z,354.30
2023-04-30T04:40:57.682Z,356.97
2023-04-30T04:45:57.725Z,358.12
2023-04-30T04:50:57.556Z,357.35
2023-04-30T04:55:57.535Z,353.92
2023-04-30T05:00:57.414Z,354.30
2023-04-30T05:05:57.377Z,355.06
2023-04-30T05:10:57.290Z,353.17
2023-04-30T05:15:57.309Z,350.56
2023-04-30T05:20:57.120Z,349.08
2023-04-30T05:25:57.102Z,348.71
2023-04-30T05:30:57.026Z,349.45
2023-04-30T05:35:56.937Z,348.71
2023-04-30T05:40:56.890Z,347.62
2023-04-30T05:45:56.885Z,347.62
2023-04-30T05:50:56.752Z,346.17
2023-04-30T05:55:56.706Z,346.53
2023-04-30T06:01:07.423Z,352.42
2023-04-30T06:05:59.840Z,352.79
2023-04-30T06:10:59.786Z,361.24
2023-04-30T06:15:59.744Z,366.43
2023-04-30T06:20:59.668Z,378.83
2023-04-30T06:25:59.602Z,375.98
2023-04-30T06:30:59.589Z,336.68
2023-04-30T06:35:59.432Z,279.18
2023-04-30T06:40:59.450Z,228.28
2023-04-30T06:45:59.399Z,190.74
2023-04-30T06:50:59.318Z,161.17
2023-04-30T06:55:59.184Z,138.89
2023-04-30T07:00:59.161Z,123.00
2023-04-30T07:05:59.055Z,112.57
2023-04-30T07:10:59.010Z,107.76
2023-04-30T07:15:58.939Z,104.36
2023-04-30T07:20:58.948Z,103.34
2023-04-30T07:25:58.818Z,104.62
2023-04-30T07:30:58.733Z,106.07
2023-04-30T07:35:58.716Z,107.42
2023-04-30T07:40:58.597Z,109.79
2023-04-30T07:45:58.658Z,112.80
2023-04-30T07:50:58.523Z,115.35
2023-04-30T07:55:58.389Z,117.76
2023-04-30T08:00:58.367Z,119.94
2023-04-30T08:05:58.366Z,121.05
2023-04-30T08:10:58.259Z,120.62
2023-04-30T08:15:58.204Z,121.32
2023-04-30T08:20:58.126Z,123.26
2023-04-30T08:25:58.018Z,125.46
2023-04-30T08:30:57.979Z,129.11
2023-04-30T08:35:57.922Z,130.61
2023-04-30T08:40:57.849Z,132.04
2023-04-30T08:45:57.829Z,132.35
2023-04-30T08:50:57.717Z,134.57
2023-04-30T08:55:57.663Z,136.86
2023-04-30T09:00:57.588Z,138.43
2023-04-30T09:05:57.617Z,140.98
2023-04-30T09:10:57.484Z,142.89
2023-04-30T09:15:57.424Z,144.97
2023-04-30T09:20:57.513Z,147.25
2023-04-30T09:26:28.758Z,150.54
2023-04-30T09:31:21.225Z,152.58
2023-04-30T09:36:21.141Z,155.24
2023-04-30T09:41:21.175Z,153.97
2023-04-30T09:46:21.093Z,152.58
2023-04-30T09:51:20.975Z,150.80
2023-04-30T09:56:20.911Z,151.75
2023-04-30T10:01:20.921Z,151.35
2023-04-30T10:06:20.830Z,149.47
2023-04-30T10:11:20.739Z,147.64
2023-04-30T10:16:20.669Z,149.47
2023-04-30T10:21:20.503Z,148.68
2023-04-30T10:26:20.566Z,146.48
2023-04-30T10:31:20.399Z,145.85
2023-04-30T10:36:20.392Z,146.36
2023-04-30T10:41:20.379Z,146.87
2023-04-30T10:46:20.295Z,146.48
2023-04-30T10:51:20.176Z,147.38
2023-04-30T10:56:20.106Z,147.64
2023-04-30T11:01:20.049Z,147.51
2023-04-30T11:06:20.248Z,148.81
2023-04-30T11:11:19.871Z,148.16
2023-04-30T11:16:19.838Z,151.35
2023-04-30T11:21:19.745Z,155.24
2023-04-30T11:26:19.683Z,157.42
2023-04-30T11:31:19.658Z,160.10
2023-04-30T11:36:19.884Z,161.79
2023-04-30T11:41:19.496Z,164.47
2023-04-30T11:46:19.470Z,166.42
2023-04-30T11:51:19.610Z,167.24
2023-04-30T11:56:19.290Z,171.32
2023-04-30T12:01:19.551Z,178.95
2023-04-30T12:06:19.208Z,180.87
2023-04-30T12:11:19.104Z,182.83
2023-04-30T12:16:19.065Z,186.14
2023-04-30T12:21:18.963Z,190.09
2023-04-30T12:26:18.929Z,195.81
2023-04-30T12:31:18.813Z,197.91
2023-04-30T12:36:18.796Z,199.70
2023-04-30T12:41:18.880Z,201.52
2023-04-30T12:46:18.690Z,202.13
2023-04-30T12:51:18.587Z,203.62
2023-04-30T12:56:18.539Z,204.12
2023-04-30T13:01:18.511Z,206.67
2023-04-30T13:06:18.438Z,211.81
2023-04-30T13:11:18.343Z,216.09
2023-04-30T13:16:18.296Z,218.94
2023-04-30T13:21:18.173Z,221.57
2023-04-30T13:26:18.219Z,225.49
2023-04-30T13:31:18.040Z,228.75
2023-04-30T13:36:17.962Z,233.74
2023-04-30T13:41:17.928Z,237.76
2023-04-30T13:46:17.955Z,239.65
2023-04-30T13:51:17.828Z,241.40
2023-04-30T13:56:17.722Z,240.18
2023-04-30T14:01:17.746Z,240.52
2023-04-30T14:06:17.662Z,247.71
2023-04-30T14:11:17.553Z,249.01
2023-04-30T14:16:17.484Z,249.95
2023-04-30T14:21:17.458Z,249.57
2023-04-30T14:26:17.360Z,252.61
2023-04-30T14:31:17.266Z,255.92
2023-04-30T14:36:17.212Z,258.11
2023-04-30T14:41:17.143Z,259.12
2023-04-30T14:46:17.253Z,266.40
2023-04-30T14:51:16.997Z,266.19
2023-04-30T14:56:17.032Z,268.56
2023-04-30T15:01:16.978Z,272.53
2023-04-30T15:06:16.991Z,278.47
2023-04-30T15:11:16.730Z,280.36
2023-04-30T15:16:16.776Z,283.71
2023-04-30T15:21:16.707Z,283.23
2023-04-30T15:26:16.524Z,285.18
2023-04-30T15:31:16.513Z,290.67
2023-04-30T15:36:16.423Z,294.80
2023-04-30T15:41:16.305Z,294.28
2023-04-30T15:46:16.331Z,294.28
2023-04-30T15:51:16.202Z,294.80
2023-04-30T15:56:16.133Z,297.98
2023-04-30T16:01:16.193Z,298.52
2023-04-30T16:06:16.141Z,300.41
2023-04-30T16:11:16.013Z,299.60
2023-04-30T16:16:15.927Z,302.05
2023-04-30T16:21:15.856Z,306.23
2023-04-30T16:26:15.800Z,305.67
2023-04-30T16:31:15.707Z,303.15
2023-04-30T16:36:15.661Z,306.80
2023-04-30T16:41:15.556Z,306.23
2023-04-30T16:46:15.544Z,308.80
2023-04-30T16:51:15.494Z,308.51
2023-04-30T16:56:15.350Z,309.37
2023-04-30T17:01:15.414Z,312.58
2023-04-30T17:06:15.322Z,313.76
2023-04-30T17:11:15.135Z,316.45
2023-04-30T17:16:15.187Z,322.92
2023-04-30T17:21:15.073Z,326.10
2023-04-30T17:26:15.016Z,329.01
2023-04-30T17:31:14.908Z,330.32
2023-04-30T17:36:14.838Z,332.30
2023-04-30T17:41:14.812Z,332.97
2023-04-30T17:46:14.694Z,334.65
2023-04-30T17:51:14.837Z,332.97
2023-04-30T17:56:14.583Z,332.97
2023-04-30T18:01:14.479Z,334.98
2023-04-30T18:06:14.453Z,331.97
2023-04-30T18:11:14.380Z,331.64
2023-04-30T18:16:14.377Z,332.97
2023-04-30T18:21:14.200Z,333.97
2023-04-30T18:26:14.178Z,335.66
2023-04-30T18:31:14.155Z,339.79
2023-04-30T18:36:14.019Z,340.83
2023-04-30T18:41:13.952Z,341.18
2023-04-30T18:46:13.941Z,340.14
2023-04-30T18:51:13.844Z,338.06
2023-04-30T18:56:13.839Z,338.06
2023-04-30T19:01:13.700Z,336.68
2023-04-30T19:06:13.639Z,335.66
2023-04-30T19:11:13.539Z,332.97
2023-04-30T19:16:13.620Z,332.97
2023-04-30T19:21:13.433Z,333.64
2023-04-30T19:26:13.346Z,337.03
2023-04-30T19:31:13.341Z,337.03
2023-04-30T19:36:13.234Z,341.54
2023-04-30T19:41:13.179Z,347.62
2023-04-30T19:46:13.152Z,355.44
2023-04-30T19:51:13.114Z,362.43
2023-04-30T19:56:12.990Z,371.35
2023-04-30T20:01:12.992Z,379.90
2023-04-30T20:06:12.983Z,385.11
2023-04-30T20:11:12.738Z,391.59
2023-04-30T20:16:12.832Z,392.73
2023-04-30T20:21:12.642Z,390.69
2023-04-30T20:26:12.772Z,394.11
2023-04-30T20:31:12.701Z,395.96
2023-04-30T20:36:12.394Z,392.73
2023-04-30T20:41:12.749Z,405.24
2023-04-30T20:46:12.293Z,405.73
2023-04-30T20:51:12.221Z,407.94
2023-04-30T20:56:12.194Z,418.06
2023-04-30T21:01:12.100Z,413.70
2023-04-30T21:06:12.070Z,413.44
2023-04-30T21:11:12.035Z,408.19
2023-04-30T21:16:11.922Z,410.17
2023-04-30T21:21:11.876Z,414.46
2023-04-30T21:26:11.756Z,414.46
2023-04-30T21:31:11.769Z,417.02
2023-04-30T21:36:11.624Z,413.70
2023-04-30T21:41:11.557Z,413.95
2023-04-30T21:46:11.538Z,418.58
2023-04-30T21:51:11.461Z,423.57
2023-04-30T21:56:11.416Z,427.06
2023-04-30T22:01:11.311Z,425.98
2023-04-30T22:06:11.285Z,430.88
2023-04-30T22:11:11.154Z,431.71
2023-04-30T22:16:11.174Z,437.59
2023-04-30T22:21:11.018Z,441.02
2023-04-30T22:26:10.937Z,448.65
2023-04-30T22:31:10.875Z,445.39
2023-04-30T22:36:10.817Z,452.87
2023-04-30T22:41:10.731Z,452.87
2023-04-30T22:46:10.728Z,456.86
2023-04-30T22:51:10.641Z,460.29
2023-04-30T22:56:10.590Z,458.10
2023-04-30T23:01:10.544Z,455.32
2023-04-30T23:06:10.539Z,454.09
2023-04-30T23:11:10.378Z,446.87
2023-04-30T23:16:10.368Z,442.18
2023-04-30T23:21:10.218Z,435.33
2023-04-30T23:26:10.182Z,431.98
2023-04-30T23:31:10.089Z,435.05
2023-04-30T23:36:10.033Z,429.78
2023-04-30T23:41:09.972Z,425.44
2023-04-30T23:46:09.987Z,423.84
2023-04-30T23:51:09.852Z,422.51
2023-04-30T23:56:09.784Z,427.06
